createdAt,value
2023-05-15T00:00:06.503Z,17.13
2023-05-15T00:02:35.817Z,17.10
2023-05-15T00:05:04.475Z,17.06
2023-05-15T00:07:32.627Z,16.97
2023-05-15T00:10:00.525Z,17.03
2023-05-15T00:12:28.892Z,16.94
2023-05-15T00:14:56.720Z,17.00
2023-05-15T00:17:24.577Z,16.99
2023-05-15T00:19:57.675Z,16.97
2023-05-15T00:22:26.141Z,16.95
2023-05-15T00:24:54.440Z,16.94
2023-05-15T00:27:22.223Z,16.91
2023-05-15T00:29:49.996Z,16.90
2023-05-15T00:32:17.829Z,16.88
2023-05-15T00:34:45.764Z,16.85
2023-05-15T00:37:15.086Z,16.82
2023-05-15T00:39:43.058Z,16.80
2023-05-15T00:42:11.408Z,16.73
2023-05-15T00:44:41.356Z,16.75
2023-05-15T00:47:11.824Z,16.64
2023-05-15T00:49:40.980Z,16.70
2023-05-15T00:52:08.881Z,16.67
2023-05-15T00:54:38.086Z,16.66
2023-05-15T00:57:07.252Z,16.64
2023-05-15T00:59:36.154Z,16.62
2023-05-15T01:02:04.197Z,16.60
2023-05-15T01:04:32.529Z,16.57
2023-05-15T01:07:00.346Z,16.57
2023-05-15T01:09:31.262Z,16.58
2023-05-15T01:12:03.436Z,16.56
2023-05-15T01:14:31.158Z,16.55
2023-05-15T01:16:59.095Z,16.55
2023-05-15T01:19:27.331Z,16.52
2023-05-15T01:22:17.476Z,16.51
2023-05-15T01:25:12.279Z,16.51
2023-05-15T01:27:46.372Z,16.48
2023-05-15T01:30:20.405Z,16.45
2023-05-15T01:32:53.445Z,16.42
2023-05-15T01:35:25.079Z,16.39
2023-05-15T01:38:01.715Z,16.30
2023-05-15T01:40:30.775Z,16.36
2023-05-15T01:43:07.078Z,16.35
2023-05-15T01:45:36.697Z,16.34
2023-05-15T01:48:09.722Z,16.33
2023-05-15T01:50:40.719Z,16.33
2023-05-15T01:53:10.637Z,16.24
2023-05-15T01:55:39.986Z,16.28
2023-05-15T01:58:10.431Z,16.28
2023-05-15T02:00:40.253Z,16.14
2023-05-15T02:03:08.245Z,16.26
2023-05-15T02:05:36.231Z,16.25
2023-05-15T02:08:05.514Z,16.22
2023-05-15T02:10:34.346Z,16.18
2023-05-15T02:13:03.020Z,16.20
2023-05-15T02:15:32.377Z,16.19
2023-05-15T02:18:00.282Z,16.16
2023-05-15T02:20:28.248Z,16.10
2023-05-15T02:22:56.048Z,16.07
2023-05-15T02:25:35.824Z,16.14
2023-05-15T02:28:07.925Z,16.12
2023-05-15T02:30:42.404Z,16.02
2023-05-15T02:33:20.895Z,16.04
2023-05-15T02:35:52.456Z,16.09
2023-05-15T02:38:26.740Z,16.08
2023-05-15T02:40:58.180Z,16.06
2023-05-15T02:43:27.408Z,16.04
2023-05-15T02:45:58.226Z,16.03
2023-05-15T02:48:27.007Z,16.01
2023-05-15T02:50:55.349Z,15.99
2023-05-15T02:53:23.204Z,15.98
2023-05-15T02:55:51.764Z,15.97
2023-05-15T02:58:19.704Z,15.95
2023-05-15T03:00:47.613Z,15.93
2023-05-15T03:03:16.836Z,15.91
2023-05-15T03:05:44.788Z,15.89
2023-05-15T03:08:12.594Z,15.88
2023-05-15T03:10:40.351Z,15.86
2023-05-15T03:13:08.111Z,15.85
2023-05-15T03:15:35.907Z,15.83
2023-05-15T03:18:03.756Z,15.82
2023-05-15T03:20:33.117Z,15.80
2023-05-15T03:23:00.878Z,15.77
2023-05-15T03:25:28.719Z,15.76
2023-05-15T03:27:56.530Z,15.75
2023-05-15T03:30:24.292Z,15.72
2023-05-15T03:32:52.140Z,15.71
2023-05-15T03:35:19.966Z,15.69
2023-05-15T03:37:49.129Z,15.68
2023-05-15T03:40:16.984Z,15.65
2023-05-15T03:42:44.816Z,15.64
2023-05-15T03:45:12.632Z,15.61
2023-05-15T03:47:40.482Z,15.59
2023-05-15T03:50:08.834Z,15.59
2023-05-15T03:52:36.651Z,15.56
2023-05-15T03:55:06.792Z,15.53
2023-05-15T03:57:35.597Z,15.52
2023-05-15T04:00:09.753Z,15.51
2023-05-15T04:02:37.759Z,15.48
2023-05-15T04:05:06.906Z,15.48
2023-05-15T04:07:35.846Z,15.46
2023-05-15T04:10:05.663Z,15.45
2023-05-15T04:12:35.440Z,15.45
2023-05-15T04:15:16.009Z,15.44
2023-05-15T04:17:44.352Z,15.43
2023-05-15T04:20:14.197Z,15.42
2023-05-15T04:22:42.530Z,15.40
2023-05-15T04:25:14.801Z,15.39
2023-05-15T04:27:43.736Z,15.38
2023-05-15T04:30:12.841Z,15.36
2023-05-15T04:32:41.337Z,15.35
2023-05-15T04:35:12.281Z,15.34
2023-05-15T04:37:41.071Z,15.33
2023-05-15T04:40:12.219Z,15.32
2023-05-15T04:42:40.001Z,15.29
2023-05-15T04:45:09.222Z,15.28
2023-05-15T04:47:37.464Z,15.28
2023-05-15T04:50:06.548Z,15.25
2023-05-15T04:52:34.543Z,15.24
2023-05-15T04:55:02.809Z,15.22
2023-05-15T04:57:32.058Z,15.22
2023-05-15T05:00:02.553Z,15.21
2023-05-15T05:02:30.607Z,15.11
2023-05-15T05:04:58.435Z,15.20
2023-05-15T05:07:26.337Z,15.19
2023-05-15T05:09:54.144Z,15.17
2023-05-15T05:12:21.909Z,15.15
2023-05-15T05:14:51.103Z,15.14
2023-05-15T05:17:20.957Z,15.13
2023-05-15T05:19:48.700Z,15.11
2023-05-15T05:22:16.574Z,15.11
2023-05-15T05:24:44.394Z,15.09
2023-05-15T05:27:12.231Z,15.05
2023-05-15T05:29:41.338Z,15.02
2023-05-15T05:32:10.639Z,14.99
2023-05-15T05:34:38.508Z,14.97
2023-05-15T05:37:06.497Z,14.88
2023-05-15T05:39:34.362Z,14.94
2023-05-15T05:42:02.179Z,14.91
2023-05-15T05:44:30.154Z,14.87
2023-05-15T05:46:58.214Z,14.85
2023-05-15T05:49:27.830Z,14.81
2023-05-15T05:51:55.756Z,14.80
2023-05-15T05:54:23.790Z,14.77
2023-05-15T05:56:51.713Z,14.75
2023-05-15T05:59:19.523Z,14.76
2023-05-15T06:01:49.200Z,14.75
2023-05-15T06:04:18.355Z,14.75
2023-05-15T06:06:47.714Z,14.73
2023-05-15T06:09:15.581Z,14.63
2023-05-15T06:11:43.427Z,14.74
2023-05-15T06:14:11.256Z,14.73
2023-05-15T06:16:39.162Z,14.74
2023-05-15T06:19:07.168Z,14.70
2023-05-15T06:21:35.288Z,14.71
2023-05-15T06:24:04.682Z,14.71
2023-05-15T06:26:32.545Z,14.71
2023-05-15T06:29:00.342Z,14.72
2023-05-15T06:31:28.244Z,14.73
2023-05-15T06:33:56.241Z,14.74
2023-05-15T06:36:24.141Z,14.74
2023-05-15T06:38:51.938Z,14.73
2023-05-15T06:41:21.703Z,14.72
2023-05-15T06:43:49.521Z,14.69
2023-05-15T06:46:19.328Z,14.72
2023-05-15T06:48:48.347Z,14.66
2023-05-15T06:51:16.166Z,14.77
2023-05-15T06:53:44.168Z,14.77
2023-05-15T06:56:11.991Z,14.78
2023-05-15T06:58:41.194Z,14.78
2023-05-15T07:01:10.355Z,14.78
2023-05-15T07:03:38.526Z,14.79
2023-05-15T07:06:06.611Z,14.83
2023-05-15T07:08:34.350Z,14.83
2023-05-15T07:11:02.164Z,14.84
2023-05-15T07:13:29.936Z,14.85
2023-05-15T07:15:59.220Z,14.86
2023-05-15T07:18:27.321Z,14.87
2023-05-15T07:20:55.343Z,14.87
2023-05-15T07:23:23.119Z,14.89
2023-05-15T07:25:50.927Z,14.91
2023-05-15T07:28:18.667Z,14.91
2023-05-15T07:30:46.518Z,14.92
2023-05-15T07:33:15.734Z,14.92
2023-05-15T07:35:43.676Z,14.93
2023-05-15T07:38:12.147Z,14.94
2023-05-15T07:40:40.122Z,14.96
2023-05-15T07:43:07.919Z,14.97
2023-05-15T07:45:36.420Z,14.98
2023-05-15T07:48:16.604Z,15.00
2023-05-15T07:50:46.479Z,15.00
2023-05-15T07:53:14.741Z,15.02
2023-05-15T07:55:42.645Z,15.01
2023-05-15T07:58:10.562Z,15.05
2023-05-15T08:00:38.357Z,15.06
2023-05-15T08:03:06.352Z,15.08
2023-05-15T08:05:35.628Z,15.11
2023-05-15T08:08:03.446Z,15.07
2023-05-15T08:10:31.215Z,15.13
2023-05-15T08:12:59.009Z,15.14
2023-05-15T08:15:26.956Z,15.14
2023-05-15T08:17:54.959Z,15.17
2023-05-15T08:20:22.979Z,15.16
2023-05-15T08:22:52.190Z,15.17
2023-05-15T08:25:20.003Z,15.20
2023-05-15T08:27:47.767Z,15.21
2023-05-15T08:30:16.535Z,15.22
2023-05-15T08:32:45.752Z,15.27
2023-05-15T08:35:13.683Z,15.30
2023-05-15T08:37:41.474Z,15.33
2023-05-15T08:40:11.596Z,15.37
2023-05-15T08:42:45.307Z,15.40
2023-05-15T08:45:14.825Z,15.41
2023-05-15T08:47:44.079Z,15.44
2023-05-15T08:50:15.429Z,15.46
2023-05-15T08:52:44.105Z,15.49
2023-05-15T08:55:14.411Z,15.51
2023-05-15T08:57:42.758Z,15.53
2023-05-15T09:00:14.461Z,15.54
2023-05-15T09:02:43.451Z,15.55
2023-05-15T09:05:11.476Z,15.56
2023-05-15T09:07:41.037Z,15.56
2023-05-15T09:10:11.334Z,15.57
2023-05-15T09:12:44.101Z,15.56
2023-05-15T09:15:14.551Z,15.57
2023-05-15T09:17:43.282Z,15.59
2023-05-15T09:20:27.094Z,15.61
2023-05-15T09:22:56.837Z,15.64
2023-05-15T09:25:41.011Z,15.58
2023-05-15T09:28:11.457Z,15.69
2023-05-15T09:30:39.840Z,15.69
2023-05-15T09:33:08.242Z,15.71
2023-05-15T09:35:37.596Z,15.73
2023-05-15T09:38:10.313Z,15.75
2023-05-15T09:40:39.340Z,15.75
2023-05-15T09:43:07.115Z,15.76
2023-05-15T09:45:37.855Z,15.77
2023-05-15T09:48:07.287Z,15.77
2023-05-15T09:50:37.088Z,15.79
2023-05-15T09:53:05.511Z,15.72
2023-05-15T09:55:34.216Z,15.80
2023-05-15T09:58:11.201Z,15.79
2023-05-15T10:00:47.632Z,15.80
2023-05-15T10:03:19.051Z,15.79
2023-05-15T10:05:47.054Z,15.80
2023-05-15T10:08:16.165Z,15.80
2023-05-15T10:10:44.596Z,15.81
2023-05-15T10:13:13.028Z,15.80
2023-05-15T10:15:43.188Z,15.79
2023-05-15T10:18:12.473Z,15.81
2023-05-15T10:20:40.687Z,15.82
2023-05-15T10:23:12.025Z,15.83
2023-05-15T10:25:46.786Z,15.86
2023-05-15T10:28:16.772Z,15.89
2023-05-15T10:30:47.373Z,15.88
2023-05-15T10:33:16.497Z,15.88
2023-05-15T10:35:45.372Z,15.89
2023-05-15T10:38:14.462Z,15.90
2023-05-15T10:40:42.820Z,15.84
2023-05-15T10:43:11.615Z,15.94
2023-05-15T10:45:40.447Z,15.94
2023-05-15T10:48:12.542Z,15.97
2023-05-15T10:50:40.623Z,15.99
2023-05-15T10:53:10.705Z,16.00
2023-05-15T10:55:38.756Z,16.01
2023-05-15T10:58:10.580Z,16.00
2023-05-15T11:00:43.700Z,15.99
2023-05-15T11:03:16.826Z,16.00
2023-05-15T11:06:10.860Z,16.00
2023-05-15T11:08:39.562Z,16.01
2023-05-15T11:11:57.497Z,16.00
2023-05-15T11:14:27.629Z,15.99
2023-05-15T11:17:03.998Z,15.99
2023-05-15T11:19:38.651Z,15.97
2023-05-15T11:22:20.543Z,15.97
2023-05-15T11:24:51.360Z,15.96
2023-05-15T11:27:20.515Z,15.98
2023-05-15T11:30:12.054Z,15.98
2023-05-15T11:32:45.002Z,15.98
2023-05-15T11:35:15.504Z,15.95
2023-05-15T11:37:44.640Z,15.94
2023-05-15T11:40:15.597Z,15.92
2023-05-15T11:42:59.412Z,15.92
2023-05-15T11:45:27.978Z,15.92
2023-05-15T11:47:55.799Z,15.93
2023-05-15T11:50:25.498Z,15.92
2023-05-15T11:52:54.026Z,15.95
2023-05-15T11:55:23.218Z,15.97
2023-05-15T11:57:51.011Z,16.00
2023-05-15T12:00:19.137Z,16.00
2023-05-15T12:02:47.239Z,16.01
2023-05-15T12:05:15.169Z,16.02
2023-05-15T12:07:45.442Z,16.02
2023-05-15T12:10:14.387Z,16.01
2023-05-15T12:12:42.778Z,15.99
2023-05-15T12:15:11.847Z,15.98
2023-05-15T12:17:40.246Z,15.94
2023-05-15T12:20:10.724Z,15.95
2023-05-15T12:22:39.360Z,15.93
2023-05-15T12:25:11.275Z,15.93
2023-05-15T12:27:40.946Z,15.92
2023-05-15T12:30:10.961Z,15.82
2023-05-15T12:32:39.882Z,15.92
2023-05-15T12:35:08.140Z,15.88
2023-05-15T12:37:37.215Z,15.81
2023-05-15T12:40:10.203Z,15.73
2023-05-15T12:42:43.877Z,15.81
2023-05-15T12:45:16.346Z,15.82
2023-05-15T12:47:44.965Z,15.84
2023-05-15T12:50:15.945Z,15.84
2023-05-15T12:52:48.541Z,15.87
2023-05-15T12:55:23.247Z,15.89
2023-05-15T12:57:52.606Z,15.92
2023-05-15T13:00:22.705Z,15.93
2023-05-15T13:02:51.930Z,15.96
2023-05-15T13:05:20.327Z,15.98
2023-05-15T13:07:48.989Z,16.00
2023-05-15T13:10:16.900Z,16.02
2023-05-15T13:12:46.401Z,16.03
2023-05-15T13:15:27.748Z,16.04
2023-05-15T13:17:59.420Z,16.05
2023-05-15T13:20:29.267Z,16.03
2023-05-15T13:22:57.153Z,16.04
2023-05-15T13:25:25.257Z,16.04
2023-05-15T13:27:53.164Z,16.05
2023-05-15T13:30:21.262Z,16.04
2023-05-15T13:32:50.739Z,16.05
2023-05-15T13:35:19.192Z,16.06
2023-05-15T13:37:46.962Z,16.07
2023-05-15T13:40:15.202Z,16.07
2023-05-15T13:42:44.779Z,16.08
2023-05-15T13:45:13.979Z,16.08
2023-05-15T13:47:42.146Z,16.09
2023-05-15T13:50:13.336Z,16.08
2023-05-15T13:52:42.435Z,16.06
2023-05-15T13:55:11.120Z,16.05
2023-05-15T13:57:39.428Z,16.05
2023-05-15T14:00:10.620Z,16.06
2023-05-15T14:02:38.479Z,16.06
2023-05-15T14:05:07.573Z,16.08
2023-05-15T14:07:36.780Z,16.07
2023-05-15T14:10:05.198Z,16.06
2023-05-15T14:12:33.807Z,16.06
2023-05-15T14:15:02.197Z,16.07
2023-05-15T14:17:30.134Z,16.06
2023-05-15T14:19:58.123Z,16.05
2023-05-15T14:22:25.927Z,16.04
2023-05-15T14:24:55.270Z,16.04
2023-05-15T14:27:23.009Z,16.02
2023-05-15T14:29:51.213Z,16.01
2023-05-15T14:32:19.138Z,16.00
2023-05-15T14:34:47.062Z,15.98
2023-05-15T14:37:15.016Z,16.00
2023-05-15T14:39:42.912Z,15.99
2023-05-15T14:42:12.307Z,15.96
2023-05-15T14:44:40.113Z,15.93
2023-05-15T14:47:09.324Z,15.94
2023-05-15T14:49:38.032Z,15.95
2023-05-15T14:52:07.889Z,15.97
2023-05-15T14:54:36.510Z,15.98
2023-05-15T14:57:04.875Z,15.99
2023-05-15T14:59:34.099Z,15.99
2023-05-15T15:02:02.171Z,15.98
2023-05-15T15:04:34.411Z,15.97
2023-05-15T15:07:05.034Z,15.95
2023-05-15T15:09:32.881Z,15.97
2023-05-15T15:12:00.934Z,15.95
2023-05-15T15:14:28.912Z,15.95
2023-05-15T15:16:58.130Z,15.94
2023-05-15T15:19:26.076Z,15.93
2023-05-15T15:21:53.972Z,15.83
2023-05-15T15:24:21.830Z,15.88
2023-05-15T15:26:49.676Z,15.81
2023-05-15T15:29:17.592Z,15.79
2023-05-15T15:31:45.426Z,15.77
2023-05-15T15:34:14.607Z,15.74
2023-05-15T15:36:43.574Z,15.69
2023-05-15T15:39:13.120Z,15.56
2023-05-15T15:41:40.992Z,15.62
2023-05-15T15:44:08.812Z,15.65
2023-05-15T15:46:36.645Z,15.67
2023-05-15T15:49:05.999Z,15.67
2023-05-15T15:51:36.281Z,15.65
2023-05-15T15:54:04.155Z,15.65
2023-05-15T15:56:31.976Z,15.62
2023-05-15T15:58:59.764Z,15.61
2023-05-15T16:01:27.764Z,15.57
2023-05-15T16:03:55.680Z,15.49
2023-05-15T16:06:23.499Z,15.50
2023-05-15T16:08:53.067Z,15.49
2023-05-15T16:11:21.501Z,15.47
2023-05-15T16:13:49.599Z,15.47
2023-05-15T16:16:17.648Z,15.46
2023-05-15T16:18:45.874Z,15.46
2023-05-15T16:21:14.117Z,15.50
2023-05-15T16:23:42.300Z,15.51
2023-05-15T16:26:11.995Z,15.53
2023-05-15T16:28:40.008Z,15.53
2023-05-15T16:31:08.034Z,15.50
2023-05-15T16:33:35.937Z,15.47
2023-05-15T16:36:05.177Z,15.46
2023-05-15T16:38:33.128Z,15.45
2023-05-15T16:41:01.474Z,15.46
2023-05-15T16:43:30.616Z,15.47
2023-05-15T16:45:58.970Z,15.44
2023-05-15T16:48:27.990Z,15.49
2023-05-15T16:50:55.784Z,15.51
2023-05-15T16:53:24.228Z,15.49
2023-05-15T16:55:52.028Z,15.49
2023-05-15T16:58:20.167Z,15.46
2023-05-15T17:00:49.473Z,15.42
2023-05-15T17:03:18.905Z,15.40
2023-05-15T17:05:47.418Z,15.40
2023-05-15T17:08:15.313Z,15.39
2023-05-15T17:10:43.257Z,15.34
2023-05-15T17:13:11.053Z,15.30
2023-05-15T17:15:38.861Z,15.30
2023-05-15T17:18:08.389Z,15.22
2023-05-15T17:20:36.243Z,15.30
2023-05-15T17:23:04.408Z,15.28
2023-05-15T17:25:32.311Z,15.27
2023-05-15T17:28:00.255Z,15.27
2023-05-15T17:30:28.367Z,15.18
2023-05-15T17:32:56.818Z,15.26
2023-05-15T17:35:26.372Z,15.23
2023-05-15T17:37:54.435Z,15.14
2023-05-15T17:40:22.298Z,15.22
2023-05-15T17:42:50.038Z,15.23
2023-05-15T17:45:18.065Z,15.23
2023-05-15T17:47:45.953Z,15.22
2023-05-15T17:50:13.779Z,15.19
2023-05-15T17:52:42.934Z,15.18
2023-05-15T17:55:10.965Z,15.17
2023-05-15T17:57:38.745Z,15.15
2023-05-15T18:00:08.364Z,15.14
2023-05-15T18:02:36.234Z,15.12
2023-05-15T18:05:04.364Z,15.06
2023-05-15T18:07:32.295Z,15.04
2023-05-15T18:10:01.729Z,15.02
2023-05-15T18:12:29.579Z,15.01
2023-05-15T18:14:57.493Z,15.00
2023-05-15T18:17:25.416Z,15.02
2023-05-15T18:19:53.450Z,15.03
2023-05-15T18:22:21.430Z,15.06
2023-05-15T18:24:49.234Z,15.06
2023-05-15T18:27:18.417Z,15.05
2023-05-15T18:29:46.196Z,15.08
2023-05-15T18:32:14.066Z,15.09
2023-05-15T18:34:41.816Z,15.08
2023-05-15T18:37:09.597Z,15.06
2023-05-15T18:39:38.508Z,15.01
2023-05-15T18:42:06.883Z,14.98
2023-05-15T18:44:36.049Z,14.96
2023-05-15T18:47:04.438Z,14.94
2023-05-15T18:49:32.384Z,14.88
2023-05-15T18:52:00.436Z,14.89
2023-05-15T18:54:28.389Z,14.94
2023-05-15T18:56:56.453Z,14.91
2023-05-15T18:59:24.641Z,14.87
2023-05-15T19:01:54.303Z,14.81
2023-05-15T19:04:22.611Z,14.79
2023-05-15T19:06:50.440Z,14.78
2023-05-15T19:09:19.092Z,14.74
2023-05-15T19:11:47.399Z,14.74
2023-05-15T19:14:17.039Z,14.73
2023-05-15T19:16:45.237Z,14.71
2023-05-15T19:19:14.621Z,14.69
2023-05-15T19:21:42.506Z,14.70
2023-05-15T19:24:10.428Z,14.69
2023-05-15T19:26:38.311Z,14.68
2023-05-15T19:29:06.460Z,14.58
2023-05-15T19:31:34.448Z,14.67
2023-05-15T19:34:02.297Z,14.56
2023-05-15T19:36:31.670Z,14.55
2023-05-15T19:38:59.531Z,14.60
2023-05-15T19:41:27.466Z,14.55
2023-05-15T19:43:55.340Z,14.52
2023-05-15T19:46:23.363Z,14.48
2023-05-15T19:48:51.280Z,14.45
2023-05-15T19:51:19.070Z,14.45
2023-05-15T19:53:48.297Z,14.44
2023-05-15T19:56:16.167Z,14.43
2023-05-15T19:58:44.056Z,14.42
2023-05-15T20:01:12.176Z,14.40
2023-05-15T20:03:40.078Z,14.39
2023-05-15T20:06:08.283Z,14.39
2023-05-15T20:08:36.111Z,14.38
2023-05-15T20:11:05.379Z,14.38
2023-05-15T20:13:34.609Z,14.38
2023-05-15T20:16:04.029Z,14.38
2023-05-15T20:18:34.469Z,14.37
2023-05-15T20:21:02.698Z,14.37
2023-05-15T20:23:30.553Z,14.37
2023-05-15T20:25:58.398Z,14.38
2023-05-15T20:28:29.277Z,14.38
2023-05-15T20:30:57.852Z,14.35
2023-05-15T20:33:26.083Z,14.32
2023-05-15T20:35:54.012Z,14.25
2023-05-15T20:38:23.044Z,14.20
2023-05-15T20:40:51.392Z,14.20
2023-05-15T20:43:19.322Z,14.17
2023-05-15T20:45:48.548Z,14.19
2023-05-15T20:48:16.355Z,14.15
2023-05-15T20:50:44.130Z,14.13
2023-05-15T20:53:12.029Z,14.01
2023-05-15T20:55:39.963Z,14.07
2023-05-15T20:58:07.865Z,14.04
2023-05-15T21:00:36.355Z,14.01
2023-05-15T21:03:06.122Z,13.99
2023-05-15T21:05:34.071Z,13.97
2023-05-15T21:08:02.177Z,13.95
2023-05-15T21:10:30.141Z,13.94
2023-05-15T21:12:59.365Z,13.79
2023-05-15T21:15:27.433Z,13.88
2023-05-15T21:17:55.269Z,13.95
2023-05-15T21:20:25.204Z,13.86
2023-05-15T21:22:53.199Z,13.94
2023-05-15T21:25:21.620Z,13.94
2023-05-15T21:27:49.620Z,13.91
2023-05-15T21:30:17.514Z,13.89
2023-05-15T21:32:45.414Z,13.89
2023-05-15T21:35:13.266Z,13.89
2023-05-15T21:37:42.468Z,13.89
2023-05-15T21:40:11.763Z,13.89
2023-05-15T21:42:39.570Z,13.90
2023-05-15T21:45:08.634Z,13.88
2023-05-15T21:47:36.717Z,13.87
2023-05-15T21:50:05.282Z,13.84
2023-05-15T21:52:33.127Z,13.83
2023-05-15T21:55:02.719Z,13.75
2023-05-15T21:57:30.618Z,13.82
2023-05-15T21:59:58.451Z,13.82
2023-05-15T22:02:26.277Z,13.82
2023-05-15T22:04:54.115Z,13.74
2023-05-15T22:07:22.479Z,13.82
2023-05-15T22:09:51.179Z,13.81
2023-05-15T22:12:21.059Z,13.81
2023-05-15T22:14:58.408Z,13.80
2023-05-15T22:17:29.208Z,13.79
2023-05-15T22:20:06.548Z,13.77
2023-05-15T22:22:34.862Z,13.76
2023-05-15T22:25:02.750Z,13.77
2023-05-15T22:27:32.333Z,13.75
2023-05-15T22:30:00.372Z,13.74
2023-05-15T22:32:28.388Z,13.76
2023-05-15T22:34:57.043Z,13.70
2023-05-15T22:37:25.046Z,13.75
2023-05-15T22:39:53.324Z,13.75
2023-05-15T22:42:21.171Z,13.73
2023-05-15T22:44:50.392Z,13.75
2023-05-15T22:47:18.671Z,13.74
2023-05-15T22:49:46.439Z,13.75
2023-05-15T22:52:14.283Z,13.75
2023-05-15T22:54:42.168Z,13.75
2023-05-15T22:57:09.972Z,13.75
2023-05-15T22:59:37.937Z,13.73
2023-05-15T23:02:07.238Z,13.71
2023-05-15T23:04:35.309Z,13.69
2023-05-15T23:07:03.204Z,13.65
2023-05-15T23:09:31.057Z,13.62
2023-05-15T23:11:58.879Z,13.60
2023-05-15T23:14:26.720Z,13.56
2023-05-15T23:16:54.530Z,13.55
2023-05-15T23:19:23.874Z,13.54
2023-05-15T23:21:52.292Z,13.53
2023-05-15T23:24:20.122Z,13.52
2023-05-15T23:26:48.114Z,13.51
2023-05-15T23:29:15.896Z,13.49
2023-05-15T23:31:44.041Z,13.47
2023-05-15T23:34:12.269Z,13.48
2023-05-15T23:36:41.487Z,13.48
2023-05-15T23:39:09.356Z,13.47
2023-05-15T23:41:37.234Z,13.47
2023-05-15T23:44:05.848Z,13.47
2023-05-15T23:46:35.908Z,13.46
2023-05-15T23:49:03.736Z,13.47
2023-05-15T23:51:32.473Z,13.44
2023-05-15T23:54:01.688Z,13.42
2023-05-15T23:56:29.583Z,13.37
2023-05-15T23:58:57.521Z,13.35
